createdAt,value
2022-11-07T00:02:29.309Z,69.98
2022-11-07T00:04:58.436Z,70.25
2022-11-07T00:07:27.819Z,69.88
2022-11-07T00:09:56.958Z,69.99
2022-11-07T00:12:26.387Z,70.06
2022-11-07T00:14:56.862Z,70.70
2022-11-07T00:17:26.318Z,70.52
2022-11-07T00:19:55.325Z,70.05
2022-11-07T00:22:24.936Z,70.23
2022-11-07T00:24:53.910Z,70.47
2022-11-07T00:27:23.368Z,70.04
2022-11-07T00:29:52.505Z,70.08
2022-11-07T00:32:23.188Z,70.08
2022-11-07T00:34:52.209Z,69.91
2022-11-07T00:37:21.862Z,69.94
2022-11-07T00:39:50.973Z,70.22
2022-11-07T00:42:20.388Z,70.15
2022-11-07T00:44:49.356Z,70.40
2022-11-07T00:47:18.758Z,70.40
2022-11-07T00:49:49.285Z,70.34
2022-11-07T00:52:18.652Z,70.48
2022-11-07T00:54:47.605Z,70.40
2022-11-07T00:57:16.965Z,70.31
2022-11-07T00:59:45.994Z,70.37
2022-11-07T01:02:15.627Z,70.05
2022-11-07T01:05:02.271Z,70.41
2022-11-07T01:07:33.991Z,70.24
2022-11-07T01:10:03.276Z,70.34
2022-11-07T01:12:34.108Z,70.35
2022-11-07T01:15:03.383Z,70.36
2022-11-07T01:17:32.756Z,70.46
2022-11-07T01:20:01.828Z,70.34
2022-11-07T01:22:32.718Z,70.35
2022-11-07T01:25:01.744Z,70.12
2022-11-07T01:27:31.107Z,70.47
2022-11-07T01:30:00.087Z,70.34
2022-11-07T01:32:29.560Z,70.39
2022-11-07T01:34:58.620Z,70.44
2022-11-07T01:37:28.024Z,70.31
2022-11-07T01:39:58.486Z,70.35
2022-11-07T01:42:28.011Z,70.11
2022-11-07T01:44:58.429Z,70.21
2022-11-07T01:47:28.436Z,70.57
2022-11-07T01:49:57.550Z,70.36
2022-11-07T01:52:28.070Z,70.42
2022-11-07T01:54:59.840Z,70.26
2022-11-07T01:57:30.529Z,70.45
2022-11-07T02:00:00.228Z,70.21
2022-11-07T02:02:29.835Z,70.03
2022-11-07T02:04:59.704Z,69.97
2022-11-07T02:07:30.299Z,70.47
2022-11-07T02:10:00.841Z,70.34
2022-11-07T02:12:30.192Z,70.48
2022-11-07T02:14:59.284Z,70.31
2022-11-07T02:17:28.750Z,69.98
2022-11-07T02:19:57.981Z,70.17
2022-11-07T02:22:31.193Z,70.39
2022-11-07T02:25:02.348Z,70.12
2022-11-07T02:27:33.007Z,70.06
2022-11-07T02:30:02.424Z,70.23
2022-11-07T02:32:31.924Z,70.30
2022-11-07T02:35:01.613Z,70.47
2022-11-07T02:37:32.233Z,70.40
2022-11-07T02:40:03.250Z,70.43
2022-11-07T02:42:43.631Z,70.28
2022-11-07T02:45:14.117Z,69.92
2022-11-07T02:47:43.514Z,70.39
2022-11-07T02:50:13.822Z,70.62
2022-11-07T02:52:43.449Z,70.11
2022-11-07T02:55:14.205Z,70.58
2022-11-07T02:57:43.615Z,70.71
2022-11-07T03:00:13.854Z,70.64
2022-11-07T03:02:47.429Z,70.88
2022-11-07T03:05:16.765Z,70.87
2022-11-07T03:07:46.607Z,70.46
2022-11-07T03:10:17.468Z,70.59
2022-11-07T03:12:46.809Z,70.43
2022-11-07T03:15:15.874Z,70.43
2022-11-07T03:17:45.300Z,70.50
2022-11-07T03:20:16.546Z,70.48
2022-11-07T03:22:45.916Z,70.73
2022-11-07T03:25:16.389Z,71.40
2022-11-07T03:27:48.866Z,71.07
2022-11-07T03:30:18.083Z,70.69
2022-11-07T03:32:47.471Z,70.89
2022-11-07T03:35:16.511Z,70.45
2022-11-07T03:37:46.725Z,70.87
2022-11-07T03:40:17.482Z,71.15
2022-11-07T03:42:47.119Z,71.73
2022-11-07T03:45:16.496Z,71.00
2022-11-07T03:47:46.435Z,70.88
2022-11-07T03:50:16.599Z,70.98
2022-11-07T03:52:45.925Z,70.28
2022-11-07T03:55:16.257Z,70.17
2022-11-07T03:57:47.129Z,70.29
2022-11-07T04:00:16.497Z,70.62
2022-11-07T04:02:45.943Z,70.83
2022-11-07T04:05:14.967Z,70.53
2022-11-07T04:07:44.282Z,70.77
2022-11-07T04:10:13.307Z,70.87
2022-11-07T04:13:00.002Z,70.42
2022-11-07T04:15:47.939Z,70.68
2022-11-07T04:18:17.307Z,70.46
2022-11-07T04:20:46.302Z,70.54
2022-11-07T04:23:16.048Z,70.53
2022-11-07T04:26:02.776Z,70.09
2022-11-07T04:28:32.146Z,70.55
2022-11-07T04:31:02.478Z,70.46
2022-11-07T04:33:32.054Z,70.37
2022-11-07T04:36:01.214Z,70.61
2022-11-07T04:38:30.650Z,70.34
2022-11-07T04:40:59.713Z,70.48
2022-11-07T04:43:29.524Z,70.49
2022-11-07T04:45:58.534Z,70.32
2022-11-07T04:48:29.438Z,70.59
2022-11-07T04:50:58.419Z,70.65
2022-11-07T04:53:28.294Z,70.75
2022-11-07T04:55:57.270Z,70.74
2022-11-07T04:58:26.662Z,70.91
2022-11-07T05:00:55.621Z,70.73
2022-11-07T05:03:25.047Z,70.55
2022-11-07T05:05:55.575Z,70.85
2022-11-07T05:08:24.873Z,70.97
2022-11-07T05:10:54.255Z,70.37
2022-11-07T05:13:23.712Z,70.53
2022-11-07T05:15:52.776Z,70.67
2022-11-07T05:18:25.179Z,70.97
2022-11-07T05:20:55.572Z,71.04
2022-11-07T05:23:23.829Z,70.67
2022-11-07T05:25:53.228Z,71.86
2022-11-07T05:28:31.162Z,73.83
2022-11-07T05:31:05.073Z,73.72
2022-11-07T05:33:34.526Z,73.37
2022-11-07T05:36:11.683Z,72.19
2022-11-07T05:38:41.695Z,72.09
2022-11-07T05:41:10.862Z,71.31
2022-11-07T05:43:40.391Z,71.24
2022-11-07T05:46:09.447Z,71.37
2022-11-07T05:48:38.912Z,71.43
2022-11-07T05:51:08.675Z,71.36
2022-11-07T05:53:39.530Z,71.40
2022-11-07T05:56:08.611Z,72.56
2022-11-07T05:58:37.911Z,73.29
2022-11-07T06:01:07.380Z,72.00
2022-11-07T06:03:36.760Z,71.69
2022-11-07T06:06:05.812Z,71.51
2022-11-07T06:08:35.185Z,71.98
2022-11-07T06:11:06.964Z,72.94
2022-11-07T06:13:36.393Z,72.10
2022-11-07T06:16:05.740Z,72.12
2022-11-07T06:18:41.400Z,74.82
2022-11-07T06:21:10.873Z,73.04
2022-11-07T06:23:40.398Z,73.86
2022-11-07T06:26:11.031Z,72.64
2022-11-07T06:28:40.591Z,72.76
2022-11-07T06:31:09.716Z,72.62
2022-11-07T06:33:39.398Z,72.64
2022-11-07T06:36:09.193Z,72.42
2022-11-07T06:38:39.019Z,72.78
2022-11-07T06:41:08.491Z,72.81
2022-11-07T06:43:39.643Z,74.41
2022-11-07T06:46:09.418Z,74.49
2022-11-07T06:48:38.917Z,74.42
2022-11-07T06:51:09.941Z,73.52
2022-11-07T06:53:39.570Z,75.14
2022-11-07T06:56:09.511Z,74.81
2022-11-07T06:58:40.407Z,73.57
2022-11-07T07:01:13.340Z,73.19
2022-11-07T07:03:43.204Z,73.48
2022-11-07T07:06:13.330Z,73.99
2022-11-07T07:08:42.929Z,73.75
2022-11-07T07:11:12.740Z,75.78
2022-11-07T07:13:43.625Z,73.97
2022-11-07T07:16:13.175Z,74.70
2022-11-07T07:18:42.563Z,75.19
2022-11-07T07:21:12.376Z,76.95
2022-11-07T07:23:41.840Z,74.02
2022-11-07T07:26:11.737Z,73.93
2022-11-07T07:28:41.143Z,74.93
2022-11-07T07:31:12.473Z,76.30
2022-11-07T07:33:41.886Z,75.53
2022-11-07T07:36:12.501Z,74.14
2022-11-07T07:38:44.941Z,73.51
2022-11-07T07:41:14.029Z,73.93
2022-11-07T07:43:43.516Z,73.92
2022-11-07T07:46:15.108Z,73.44
2022-11-07T07:48:44.610Z,73.25
2022-11-07T07:51:13.634Z,73.37
2022-11-07T07:53:43.079Z,74.34
2022-11-07T07:56:12.122Z,74.24
2022-11-07T07:58:41.527Z,73.42
2022-11-07T08:01:11.658Z,73.45
2022-11-07T08:04:00.043Z,74.77
2022-11-07T08:06:30.131Z,73.97
2022-11-07T08:08:59.558Z,75.73
2022-11-07T08:11:28.636Z,74.63
2022-11-07T08:14:01.338Z,74.13
2022-11-07T08:16:30.894Z,73.42
2022-11-07T08:19:03.682Z,73.21
2022-11-07T08:21:32.706Z,73.81
2022-11-07T08:24:03.828Z,74.41
2022-11-07T08:26:32.961Z,74.54
2022-11-07T08:29:03.491Z,74.43
2022-11-07T08:31:33.431Z,73.76
2022-11-07T08:34:04.609Z,73.90
2022-11-07T08:36:33.608Z,74.16
2022-11-07T08:39:03.040Z,74.02
2022-11-07T08:41:32.269Z,74.62
2022-11-07T08:44:01.649Z,74.22
2022-11-07T08:46:33.423Z,73.57
2022-11-07T08:49:04.239Z,72.96
2022-11-07T08:51:33.498Z,72.76
2022-11-07T08:54:03.034Z,73.35
2022-11-07T08:56:32.155Z,73.05
2022-11-07T08:59:01.718Z,72.93
2022-11-07T09:01:30.859Z,73.32
2022-11-07T09:04:08.067Z,74.14
2022-11-07T09:06:38.580Z,73.45
2022-11-07T09:09:11.537Z,74.33
2022-11-07T09:11:43.266Z,74.61
2022-11-07T09:14:15.283Z,75.04
2022-11-07T09:17:35.443Z,75.70
2022-11-07T09:20:11.250Z,76.42
2022-11-07T09:22:44.481Z,75.65
2022-11-07T09:25:19.474Z,74.74
2022-11-07T09:27:48.604Z,74.85
2022-11-07T09:30:18.019Z,74.49
2022-11-07T09:32:47.006Z,74.65
2022-11-07T09:35:16.490Z,75.22
2022-11-07T09:37:47.045Z,75.07
2022-11-07T09:40:21.720Z,74.48
2022-11-07T09:42:52.852Z,74.81
2022-11-07T09:45:22.462Z,74.37
2022-11-07T09:47:54.611Z,75.19
2022-11-07T09:50:26.260Z,75.22
2022-11-07T09:52:58.553Z,76.26
2022-11-07T09:55:28.589Z,76.45
2022-11-07T09:57:59.255Z,76.18
2022-11-07T10:00:30.591Z,75.84
2022-11-07T10:03:00.233Z,76.73
2022-11-07T10:05:31.713Z,76.10
2022-11-07T10:08:03.094Z,75.98
2022-11-07T10:10:35.254Z,76.33
2022-11-07T10:13:32.797Z,76.93
2022-11-07T10:16:05.405Z,76.96
2022-11-07T10:18:38.300Z,77.20
2022-11-07T10:21:36.382Z,76.88
2022-11-07T10:24:06.419Z,77.13
2022-11-07T10:26:35.887Z,76.52
2022-11-07T10:29:13.439Z,75.39
2022-11-07T10:31:44.449Z,76.01
2022-11-07T10:34:14.088Z,76.98
2022-11-07T10:36:43.603Z,76.66
2022-11-07T10:39:17.810Z,76.41
2022-11-07T10:41:48.121Z,76.51
2022-11-07T10:46:53.420Z,76.10
2022-11-07T10:49:24.669Z,76.28
2022-11-07T10:51:54.468Z,76.29
2022-11-07T10:54:28.398Z,75.77
2022-11-07T10:56:59.340Z,76.15
2022-11-07T10:59:34.669Z,76.30
2022-11-07T11:02:15.334Z,75.71
2022-11-07T11:04:51.026Z,76.03
2022-11-07T11:07:25.622Z,75.55
2022-11-07T11:09:59.231Z,75.41
2022-11-07T11:12:34.569Z,75.36
2022-11-07T11:15:05.561Z,75.31
2022-11-07T11:17:35.806Z,75.36
2022-11-07T11:20:06.110Z,75.68
2022-11-07T11:22:40.005Z,76.00
2022-11-07T11:25:16.552Z,75.28
2022-11-07T11:27:46.370Z,75.50
2022-11-07T11:30:17.020Z,75.54
2022-11-07T11:33:04.337Z,75.00
2022-11-07T11:35:41.641Z,74.10
2022-11-07T11:38:24.694Z,74.19
2022-11-07T11:41:04.620Z,74.12
2022-11-07T11:43:50.646Z,74.66
2022-11-07T11:46:23.836Z,74.82
2022-11-07T11:49:01.109Z,74.69
2022-11-07T11:51:33.834Z,74.24
2022-11-07T11:54:08.970Z,74.01
2022-11-07T12:01:29.194Z,74.47
2022-11-07T12:05:14.009Z,72.63
2022-11-07T12:08:12.410Z,73.81
2022-11-07T12:10:45.360Z,74.90
2022-11-07T12:13:22.174Z,73.61
2022-11-07T12:15:57.266Z,74.47
2022-11-07T12:18:29.142Z,73.02
2022-11-07T12:21:23.409Z,73.57
2022-11-07T12:27:16.937Z,73.59
2022-11-07T12:30:25.732Z,72.68
2022-11-07T13:11:34.581Z,72.27
2022-11-07T13:14:27.722Z,72.58
2022-11-07T13:17:30.876Z,72.27
2022-11-07T13:20:40.667Z,72.28
2022-11-07T13:23:49.361Z,72.24
2022-11-07T13:26:46.409Z,72.04
2022-11-07T13:29:37.839Z,73.03
2022-11-07T13:39:15.705Z,72.28
2022-11-07T13:41:54.731Z,72.55
2022-11-07T13:44:42.170Z,72.37
2022-11-07T13:47:27.013Z,70.91
2022-11-07T13:50:13.416Z,72.45
2022-11-07T13:52:57.279Z,71.54
2022-11-07T13:55:36.076Z,72.13
2022-11-07T13:58:25.522Z,72.18
2022-11-07T14:00:57.094Z,72.80
2022-11-07T14:03:27.671Z,72.22
2022-11-07T14:07:03.160Z,71.94
2022-11-07T14:10:25.821Z,72.17
2022-11-07T14:13:23.456Z,72.39
2022-11-07T14:15:54.709Z,72.65
2022-11-07T14:18:31.765Z,72.14
2022-11-07T14:21:02.911Z,71.92
2022-11-07T14:23:37.856Z,72.37
2022-11-07T14:26:17.383Z,71.47
2022-11-07T14:28:53.425Z,72.14
2022-11-07T14:31:27.684Z,71.58
2022-11-07T14:34:09.168Z,71.91
2022-11-07T14:36:52.543Z,72.04
2022-11-07T14:39:27.686Z,71.72
2022-11-07T14:41:59.780Z,72.08
2022-11-07T14:44:47.687Z,71.73
2022-11-07T14:47:23.387Z,71.69
2022-11-07T14:50:02.082Z,71.77
2022-11-07T14:52:33.239Z,71.31
2022-11-07T14:55:06.241Z,71.41
2022-11-07T14:57:41.089Z,71.48
2022-11-07T15:00:17.842Z,71.60
2022-11-07T15:02:47.645Z,71.46
2022-11-07T15:05:28.728Z,71.52
2022-11-07T15:08:03.655Z,71.74
2022-11-07T15:10:33.966Z,71.47
2022-11-07T15:13:27.735Z,71.30
2022-11-07T15:16:05.545Z,71.49
2022-11-07T15:18:36.210Z,71.36
2022-11-07T15:21:29.045Z,71.45
2022-11-07T15:24:07.134Z,71.36
2022-11-07T15:26:47.492Z,71.18
2022-11-07T15:36:08.583Z,71.24
2022-11-07T15:38:42.143Z,71.31
2022-11-07T15:45:14.375Z,71.25
2022-11-07T15:52:25.834Z,71.04
2022-11-07T16:18:48.801Z,73.77
2022-11-07T16:21:19.891Z,74.39
2022-11-07T16:23:59.989Z,75.03
2022-11-07T16:26:38.516Z,75.69
2022-11-07T16:29:10.713Z,75.47
2022-11-07T16:31:40.048Z,74.04
2022-11-07T16:34:10.036Z,74.65
2022-11-07T16:36:40.780Z,74.56
2022-11-07T16:39:11.963Z,75.79
2022-11-07T16:41:41.251Z,76.75
2022-11-07T16:44:10.598Z,77.21
2022-11-07T16:46:40.027Z,76.79
2022-11-07T16:49:13.838Z,75.93
2022-11-07T16:51:45.924Z,74.49
2022-11-07T16:54:15.014Z,73.50
2022-11-07T16:56:45.106Z,72.88
2022-11-07T16:59:15.015Z,73.09
2022-11-07T17:01:44.546Z,72.83
2022-11-07T17:04:13.759Z,72.87
2022-11-07T17:06:47.097Z,72.59
2022-11-07T17:09:20.458Z,72.65
2022-11-07T17:11:49.980Z,73.26
2022-11-07T17:14:18.962Z,74.76
2022-11-07T17:16:49.103Z,74.91
2022-11-07T17:19:18.241Z,75.49
2022-11-07T17:21:49.572Z,75.86
2022-11-07T17:24:20.171Z,75.65
2022-11-07T17:26:49.630Z,75.99
2022-11-07T17:29:18.677Z,75.38
2022-11-07T17:31:48.327Z,74.52
2022-11-07T17:34:17.383Z,75.36
2022-11-07T17:36:47.849Z,73.56
2022-11-07T17:39:19.861Z,73.73
2022-11-07T17:41:54.621Z,72.94
2022-11-07T17:44:26.948Z,73.48
2022-11-07T17:47:02.014Z,73.58
2022-11-07T17:49:31.199Z,72.92
2022-11-07T17:52:00.794Z,72.72
2022-11-07T17:54:33.273Z,73.02
2022-11-07T17:57:09.062Z,73.49
2022-11-07T17:59:46.211Z,72.97
2022-11-07T18:02:16.994Z,72.63
2022-11-07T18:04:50.957Z,72.19
2022-11-07T18:07:20.901Z,72.72
2022-11-07T18:09:51.617Z,72.41
2022-11-07T18:12:22.658Z,72.82
2022-11-07T18:14:51.863Z,72.93
2022-11-07T18:17:21.512Z,72.52
2022-11-07T18:19:50.771Z,72.75
2022-11-07T18:22:20.293Z,72.37
2022-11-07T18:24:49.385Z,72.75
2022-11-07T18:27:19.289Z,72.44
2022-11-07T18:29:49.738Z,72.51
2022-11-07T18:32:19.126Z,73.30
2022-11-07T18:34:48.111Z,75.13
2022-11-07T18:37:18.434Z,74.66
2022-11-07T18:39:47.565Z,72.97
2022-11-07T18:42:16.926Z,74.79
2022-11-07T18:44:46.012Z,73.62
2022-11-07T18:47:16.808Z,72.57
2022-11-07T18:49:45.995Z,72.61
2022-11-07T18:52:15.517Z,72.45
2022-11-07T18:54:44.604Z,72.71
2022-11-07T18:57:13.967Z,72.26
2022-11-07T18:59:42.969Z,72.48
2022-11-07T19:02:12.480Z,72.45
2022-11-07T19:04:44.028Z,72.17
2022-11-07T19:07:13.538Z,72.66
2022-11-07T19:09:42.572Z,72.37
2022-11-07T19:12:11.945Z,72.84
2022-11-07T19:14:40.974Z,73.06
2022-11-07T19:17:10.714Z,72.83
2022-11-07T19:19:39.913Z,74.30
2022-11-07T19:22:12.676Z,74.54
2022-11-07T19:24:41.725Z,73.58
2022-11-07T19:27:11.336Z,77.01
2022-11-07T19:29:40.457Z,76.79
2022-11-07T19:32:09.898Z,77.95
2022-11-07T19:34:39.081Z,79.68
2022-11-07T19:37:08.528Z,78.43
2022-11-07T19:39:39.084Z,79.66
2022-11-07T19:42:08.482Z,77.39
2022-11-07T19:44:39.761Z,78.04
2022-11-07T19:47:10.263Z,78.21
2022-11-07T19:49:39.326Z,78.42
2022-11-07T19:52:08.783Z,79.97
2022-11-07T19:54:39.290Z,79.12
2022-11-07T19:57:14.859Z,79.48
2022-11-07T19:59:45.365Z,79.58
2022-11-07T20:02:32.167Z,79.92
2022-11-07T20:05:02.734Z,79.61
2022-11-07T20:07:32.642Z,80.16
2022-11-07T20:14:03.895Z,80.30
2022-11-07T20:17:49.840Z,79.40
2022-11-07T20:20:09.542Z,80.64
2022-11-07T20:23:22.326Z,80.81
2022-11-07T20:25:58.201Z,80.43
2022-11-07T20:33:09.693Z,80.28
2022-11-07T20:36:13.051Z,80.83
2022-11-07T20:38:57.505Z,80.93
2022-11-07T20:45:14.849Z,80.63
2022-11-07T21:07:59.842Z,81.11
2022-11-07T21:11:34.940Z,81.43
2022-11-07T21:13:38.497Z,80.98
2022-11-07T21:16:55.572Z,81.18
2022-11-07T21:27:08.161Z,81.81
2022-11-07T21:29:38.178Z,81.71
2022-11-07T21:32:16.419Z,82.21
2022-11-07T21:34:52.168Z,82.12
2022-11-07T21:37:25.297Z,81.96
2022-11-07T21:39:54.797Z,81.95
2022-11-07T21:42:25.304Z,81.05
2022-11-07T21:44:54.893Z,81.31
2022-11-07T21:47:23.964Z,81.87
2022-11-07T21:49:53.323Z,81.92
2022-11-07T21:52:22.406Z,81.85
2022-11-07T21:54:51.886Z,81.05
2022-11-07T21:57:21.012Z,80.09
2022-11-07T21:59:52.000Z,80.11
2022-11-07T22:02:21.339Z,81.17
2022-11-07T22:04:50.908Z,81.57
2022-11-07T22:07:21.508Z,80.57
2022-11-07T22:09:54.262Z,81.89
2022-11-07T22:12:23.381Z,81.11
2022-11-07T22:14:54.299Z,80.22
2022-11-07T22:17:23.562Z,78.15
2022-11-07T22:19:53.077Z,79.13
2022-11-07T22:22:22.415Z,81.64
2022-11-07T22:24:51.974Z,81.79
2022-11-07T22:27:21.065Z,78.67
2022-11-07T22:29:53.001Z,79.75
2022-11-07T22:32:23.790Z,80.82
2022-11-07T22:34:53.310Z,82.61
2022-11-07T22:37:22.657Z,81.85
2022-11-07T22:39:52.346Z,82.10
2022-11-07T22:42:23.925Z,79.23
2022-11-07T22:44:53.925Z,81.71
2022-11-07T22:47:24.528Z,82.37
2022-11-07T22:49:54.021Z,81.46
2022-11-07T22:52:23.092Z,82.23
2022-11-07T22:54:52.612Z,81.85
2022-11-07T22:57:24.146Z,80.05
2022-11-07T23:00:12.466Z,81.52
2022-11-07T23:02:58.029Z,79.10
2022-11-07T23:05:28.916Z,78.92
2022-11-07T23:07:58.366Z,78.21
2022-11-07T23:10:28.195Z,79.62
2022-11-07T23:25:03.800Z,82.00
2022-11-07T23:27:33.650Z,81.55
2022-11-07T23:30:03.031Z,82.41
2022-11-07T23:32:32.710Z,83.16
2022-11-07T23:41:55.283Z,83.64
2022-11-07T23:44:25.135Z,83.23
2022-11-07T23:47:11.520Z,81.82
2022-11-07T23:49:58.611Z,83.06
2022-11-07T23:52:27.892Z,83.71
2022-11-07T23:55:14.816Z,84.27
2022-11-07T23:58:02.992Z,84.17
